Time;durP1;ratioP1;P1;durP2;ratioP2;P2;SDS_P1;SDS_P2;PMS_P1;PMS_P2;Temp;Humidity;BMP_temperature;BMP_pressure;BME280_temperature;BME280_humidity;BME280_pressure;Samples;Min_cycle;Max_cycle;Signal;HPM_P1;HPM_P2
2021/11/08 00:07:54;;;;;;;1.52;0.47;;;7.60;99.90;;;;;;20517107;28;20050;-43
2021/11/08 00:18:10;;;;;;;3.33;0.98;;;7.50;99.90;;;;;;20490726;28;20051;-43
2021/11/08 00:28:13;;;;;;;4.03;0.50;;;7.50;99.90;;;;;;20518930;28;20059;-43
2021/11/08 00:38:16;;;;;;;5.00;0.65;;;7.50;99.90;;;;;;20512092;28;20110;-43
2021/11/08 00:48:22;;;;;;;2.10;0.63;;;7.40;99.90;;;;;;20514653;28;20208;-43
2021/11/08 00:58:35;;;;;;;7.50;1.15;;;7.30;99.90;;;;;;20504125;28;20058;-43
2021/11/08 01:08:36;;;;;;;2.60;0.68;;;7.10;99.90;;;;;;20518158;28;20055;-43
2021/11/08 01:18:38;;;;;;;2.25;0.60;;;7.00;99.90;;;;;;20503429;28;20035;-43
2021/11/08 01:28:44;;;;;;;1.55;0.50;;;6.80;99.90;;;;;;20511353;28;20407;-43
2021/11/08 01:38:47;;;;;;;1.88;0.55;;;6.60;99.90;;;;;;20511656;28;20050;-43
2021/11/08 01:48:50;;;;;;;2.72;0.88;;;6.50;99.90;;;;;;20504731;28;20137;-43
2021/11/08 01:58:51;;;;;;;4.13;0.73;;;6.40;99.90;;;;;;20510556;28;20058;-43
2021/11/08 02:08:53;;;;;;;1.75;0.50;;;6.30;99.90;;;;;;20512928;28;20042;-43
2021/11/08 02:18:55;;;;;;;2.10;0.70;;;6.20;99.90;;;;;;20496045;28;20054;-43
2021/11/08 02:28:56;;;;;;;1.08;0.32;;;6.00;99.90;;;;;;20500138;28;20141;-43
2021/11/08 02:38:59;;;;;;;1.92;0.75;;;5.90;99.90;;;;;;20518740;28;20440;-43
2021/11/08 02:49:02;;;;;;;1.05;0.38;;;5.80;99.90;;;;;;20507606;28;20287;-43
2021/11/08 02:59:05;;;;;;;2.67;0.60;;;5.70;99.90;;;;;;20498350;28;20075;-43
2021/11/08 03:09:20;;;;;;;3.25;0.85;;;5.70;99.90;;;;;;20500220;28;20440;-43
2021/11/08 03:19:30;;;;;;;1.70;0.50;;;5.90;99.90;;;;;;20500068;28;20039;-43
2021/11/08 03:29:32;;;;;;;3.15;0.50;;;6.20;99.90;;;;;;20505247;28;20066;-43
2021/11/08 03:39:33;;;;;;;2.58;0.38;;;6.30;99.90;;;;;;20498959;28;20421;-43
2021/11/08 03:49:34;;;;;;;3.97;0.50;;;6.20;99.90;;;;;;20517653;28;20039;-43
2021/11/08 03:59:36;;;;;;;2.53;0.50;;;6.10;99.90;;;;;;20496632;28;20047;-43
2021/11/08 04:09:38;;;;;;;7.38;0.75;;;5.90;99.90;;;;;;20489368;28;20062;-43
2021/11/08 04:19:41;;;;;;;1.65;0.52;;;5.90;99.90;;;;;;20497430;28;20050;-43
2021/11/08 04:29:42;;;;;;;1.95;0.77;;;5.90;99.90;;;;;;20506371;28;20061;-43
2021/11/08 04:50:38;;;;;;;2.50;0.60;;;6.20;99.90;;;;;;20506949;28;20528;-43
2021/11/08 05:31:31;;;;;;;1.25;0.45;;;6.40;99.90;;;;;;20511241;28;20035;-43
2021/11/08 05:41:35;;;;;;;1.50;0.47;;;6.30;99.90;;;;;;20518056;28;20054;-43
2021/11/08 05:51:36;;;;;;;5.00;0.70;;;6.10;99.90;;;;;;20511549;28;20041;-43
2021/11/08 06:53:19;;;;;;;2.53;0.45;;;6.70;99.90;;;;;;20502575;28;20411;-43
2021/11/08 07:03:21;;;;;;;4.22;1.13;;;6.70;99.90;;;;;;20510413;28;20063;-43
2021/11/08 07:13:22;;;;;;;2.45;0.68;;;6.70;99.90;;;;;;20498685;28;20046;-43
2021/11/08 07:23:24;;;;;;;2.63;0.63;;;6.80;99.90;;;;;;20491524;28;20047;-43
2021/11/08 07:33:25;;;;;;;2.22;0.95;;;6.90;99.90;;;;;;20505276;28;20042;-43
2021/11/08 07:43:26;;;;;;;2.40;0.73;;;7.10;99.90;;;;;;20513766;28;20047;-43
2021/11/08 07:53:27;;;;;;;4.45;0.82;;;7.40;99.90;;;;;;20497315;28;20601;-44
2021/11/08 08:03:28;;;;;;;4.47;1.20;;;7.70;99.90;;;;;;20517026;28;20317;-43
2021/11/08 08:13:30;;;;;;;3.88;0.65;;;8.00;99.90;;;;;;20509771;28;20792;-43
2021/11/08 08:23:31;;;;;;;7.00;1.63;;;8.20;99.90;;;;;;20508506;28;20055;-43
2021/11/08 08:33:34;;;;;;;5.15;0.47;;;8.50;99.90;;;;;;20548599;28;20567;-43
2021/11/08 08:43:36;;;;;;;2.83;0.38;;;8.70;99.90;;;;;;20499062;28;20059;-43
2021/11/08 08:53:38;;;;;;;3.88;0.70;;;8.80;99.90;;;;;;20515166;28;20501;-43
2021/11/08 09:03:40;;;;;;;2.40;0.68;;;8.90;99.90;;;;;;20520656;28;20057;-43
2021/11/08 09:13:41;;;;;;;4.00;0.90;;;9.10;99.90;;;;;;20504184;28;20078;-43
2021/11/08 09:23:44;;;;;;;4.18;0.55;;;9.40;99.90;;;;;;20501931;28;20106;-43
2021/11/08 09:33:46;;;;;;;6.95;1.00;;;9.90;99.90;;;;;;20513980;28;20057;-43
2021/11/08 09:43:51;;;;;;;5.15;1.65;;;10.10;99.90;;;;;;20500189;28;20061;-43
2021/11/08 09:53:55;;;;;;;4.38;1.20;;;10.40;99.90;;;;;;20512989;28;20511;-43
2021/11/08 10:03:57;;;;;;;1.75;0.50;;;10.50;99.90;;;;;;20486741;28;20039;-43
2021/11/08 10:13:58;;;;;;;10.52;1.50;;;10.60;99.90;;;;;;20494864;28;20031;-43
2021/11/08 10:24:04;;;;;;;10.98;1.70;;;10.50;99.90;;;;;;20504033;28;20062;-43
2021/11/08 10:34:08;;;;;;;9.40;1.30;;;10.50;99.90;;;;;;20496585;28;20055;-43
2021/11/08 10:44:17;;;;;;;5.28;0.60;;;10.50;99.90;;;;;;20486974;28;20039;-43
2021/11/08 10:54:31;;;;;;;5.75;1.38;;;10.90;99.90;;;;;;20500916;28;20043;-43
2021/11/08 11:04:44;;;;;;;8.50;1.05;;;11.80;99.90;;;;;;20496232;28;20043;-43
2021/11/08 11:14:48;;;;;;;3.90;1.30;;;12.50;99.90;;;;;;20513321;28;20039;-43
2021/11/08 11:24:55;;;;;;;19.13;1.55;;;13.40;99.90;;;;;;20515411;28;20548;-43
2021/11/08 11:34:57;;;;;;;5.82;1.67;;;13.30;99.90;;;;;;20513248;28;20081;-43
2021/11/08 11:45:05;;;;;;;2.20;0.30;;;13.50;99.90;;;;;;20505457;28;20050;-44
2021/11/08 11:55:06;;;;;;;3.75;0.98;;;14.00;99.90;;;;;;20530007;28;20505;-44
2021/11/08 12:05:08;;;;;;;5.10;1.48;;;14.30;99.90;;;;;;20509622;28;20057;-43
2021/11/08 12:15:12;;;;;;;5.72;0.65;;;13.70;99.90;;;;;;20524958;28;20047;-43
2021/11/08 12:25:23;;;;;;;3.45;0.47;;;13.00;99.90;;;;;;20505433;28;20413;-43
2021/11/08 12:35:30;;;;;;;3.08;0.60;;;12.60;99.90;;;;;;20513992;28;20055;-43
2021/11/08 12:45:40;;;;;;;3.40;1.30;;;12.30;99.90;;;;;;20513012;28;20054;-43
2021/11/08 12:55:42;;;;;;;10.07;1.05;;;12.40;99.90;;;;;;20510019;28;20041;-43
2021/11/08 13:05:49;;;;;;;3.80;0.50;;;12.40;99.90;;;;;;20504853;28;20054;-44
2021/11/08 13:15:50;;;;;;;5.50;0.30;;;12.30;99.90;;;;;;20517571;28;20050;-43
2021/11/08 13:25:53;;;;;;;4.75;1.45;;;12.40;99.90;;;;;;20509998;28;20039;-43
2021/11/08 13:35:55;;;;;;;1.38;0.50;;;12.30;99.90;;;;;;20502104;28;20061;-43
2021/11/08 13:46:05;;;;;;;2.38;0.70;;;12.20;99.90;;;;;;20500725;28;20035;-43
2021/11/08 13:56:11;;;;;;;4.78;0.65;;;12.10;99.90;;;;;;20500534;28;20039;-43
2021/11/08 14:06:14;;;;;;;6.65;1.15;;;11.90;99.90;;;;;;20509246;28;20431;-43
2021/11/08 14:16:17;;;;;;;4.10;0.45;;;11.80;99.90;;;;;;20501076;28;20050;-43
2021/11/08 14:26:20;;;;;;;3.67;0.82;;;11.90;99.90;;;;;;20512924;28;20077;-44
2021/11/08 14:36:24;;;;;;;5.72;0.60;;;11.80;99.90;;;;;;20503290;28;20058;-44
2021/11/08 14:46:43;;;;;;;5.30;1.27;;;11.70;99.90;;;;;;20518671;28;20523;-43
2021/11/08 14:56:53;;;;;;;6.90;0.95;;;11.80;99.90;;;;;;20509154;28;20047;-44
2021/11/08 15:07:01;;;;;;;5.13;0.57;;;11.70;99.90;;;;;;20503326;28;20047;-43
2021/11/08 15:17:03;;;;;;;2.75;0.70;;;11.60;99.90;;;;;;20503428;28;20027;-44
2021/11/08 15:27:04;;;;;;;6.72;1.15;;;11.50;99.90;;;;;;20490326;28;20054;-43
2021/11/08 15:37:07;;;;;;;4.28;0.82;;;11.50;99.90;;;;;;20524375;28;20061;-44
2021/11/08 15:47:08;;;;;;;1.73;0.40;;;11.40;99.90;;;;;;20513945;28;20059;-44
2021/11/08 15:57:10;;;;;;;2.22;0.70;;;11.30;99.90;;;;;;20524671;28;20496;-43
2021/11/08 16:07:11;;;;;;;6.93;1.15;;;11.30;99.90;;;;;;20486027;28;20046;-44
2021/11/08 16:17:12;;;;;;;2.35;0.75;;;11.20;99.90;;;;;;20489655;28;20042;-44
2021/11/08 16:27:13;;;;;;;6.55;0.70;;;11.10;99.90;;;;;;20496164;28;20409;-44
2021/11/08 16:37:15;;;;;;;9.25;1.17;;;10.90;99.90;;;;;;20502102;28;20602;-44
2021/11/08 16:47:16;;;;;;;3.63;1.23;;;10.90;99.90;;;;;;20529447;28;20050;-44
2021/11/08 16:57:18;;;;;;;5.97;1.50;;;10.90;99.90;;;;;;20536696;28;20388;-44
2021/11/08 17:07:24;;;;;;;3.70;0.80;;;10.80;99.90;;;;;;20513697;28;20055;-44
2021/11/08 17:17:27;;;;;;;3.65;1.13;;;10.80;99.90;;;;;;20515548;28;20652;-44
2021/11/08 17:27:28;;;;;;;6.20;1.45;;;10.70;99.90;;;;;;20512037;28;20055;-44
2021/11/08 17:37:29;;;;;;;4.47;1.20;;;10.80;99.90;;;;;;20498342;28;20050;-44
2021/11/08 17:47:31;;;;;;;3.53;1.17;;;10.70;99.90;;;;;;20504400;28;20536;-44
2021/11/08 17:57:32;;;;;;;4.13;1.10;;;10.60;99.90;;;;;;20481066;28;20085;-44
2021/11/08 18:07:35;;;;;;;11.52;1.42;;;10.40;99.90;;;;;;20506914;28;20054;-44
2021/11/08 18:17:37;;;;;;;6.40;1.25;;;10.40;99.90;;;;;;20497015;28;20131;-44
2021/11/08 18:27:39;;;;;;;7.95;1.77;;;10.30;99.90;;;;;;20528949;28;20063;-44
2021/11/08 18:37:40;;;;;;;5.22;1.15;;;10.10;99.90;;;;;;20504131;28;20055;-44
2021/11/08 18:47:42;;;;;;;13.32;2.08;;;10.10;99.90;;;;;;20496292;28;20058;-44
2021/11/08 18:57:45;;;;;;;7.07;2.47;;;10.10;99.90;;;;;;20502588;28;20039;-44
2021/11/08 19:17:53;;;;;;;5.97;2.17;;;9.90;99.90;;;;;;20487012;28;20047;-44
2021/11/08 19:27:55;;;;;;;3.55;1.63;;;9.80;99.90;;;;;;20482878;28;20062;-44
2021/11/08 19:38:00;;;;;;;7.03;1.92;;;9.60;99.90;;;;;;20500035;28;20050;-44
2021/11/08 19:48:01;;;;;;;4.03;2.10;;;9.40;99.90;;;;;;20512429;28;20045;-44
2021/11/08 19:58:04;;;;;;;7.40;2.70;;;9.10;99.90;;;;;;20497288;28;20494;-44
2021/11/08 20:08:06;;;;;;;5.82;2.30;;;8.90;99.90;;;;;;20503803;28;20527;-44
2021/11/08 20:18:12;;;;;;;12.25;2.10;;;8.90;99.90;;;;;;20491855;28;20038;-44
2021/11/08 20:28:21;;;;;;;8.45;2.40;;;8.80;99.90;;;;;;20515513;28;20054;-44
2021/11/08 20:38:25;;;;;;;4.18;1.48;;;8.60;99.90;;;;;;20515605;28;20047;-44
2021/11/08 21:19:07;;;;;;;8.00;1.40;;;8.30;99.90;;;;;;20501268;28;20443;-44
2021/11/08 21:39:13;;;;;;;4.50;1.55;;;8.00;99.90;;;;;;20489038;28;22348;-44
2021/11/08 21:49:15;;;;;;;7.70;2.38;;;7.90;99.90;;;;;;20489979;28;20034;-44
2021/11/08 21:59:16;;;;;;;8.65;2.83;;;7.70;99.90;;;;;;20501165;28;20382;-44
2021/11/08 22:09:17;;;;;;;5.72;2.28;;;7.70;99.90;;;;;;20482716;28;20042;-44
2021/11/08 22:19:18;;;;;;;5.93;2.15;;;7.70;99.90;;;;;;20487778;28;20041;-44
2021/11/08 22:29:21;;;;;;;4.55;2.13;;;7.60;99.90;;;;;;20488057;28;20047;-44
2021/11/08 22:39:23;;;;;;;7.43;2.08;;;7.60;99.90;;;;;;20480326;28;20409;-44
2021/11/08 22:49:24;;;;;;;12.77;2.50;;;7.60;99.90;;;;;;20481487;28;20094;-44
2021/11/08 22:59:25;;;;;;;7.07;2.10;;;7.60;99.90;;;;;;20492663;28;20547;-44
2021/11/08 23:09:26;;;;;;;5.00;2.20;;;7.50;99.90;;;;;;20474241;28;20051;-44
2021/11/08 23:19:28;;;;;;;10.35;1.98;;;7.50;99.90;;;;;;20491406;28;21776;-44
2021/11/08 23:29:29;;;;;;;7.53;2.72;;;7.50;99.90;;;;;;20484194;28;20055;-44
2021/11/08 23:39:32;;;;;;;5.95;1.88;;;7.40;99.90;;;;;;20471547;28;20055;-44
2021/11/08 23:49:33;;;;;;;4.60;1.60;;;7.40;99.90;;;;;;20495415;28;20053;-44
2021/11/08 23:59:34;;;;;;;7.50;1.98;;;7.40;99.90;;;;;;20487068;28;20046;-44
